Hiyodori — JD2366 — position and weather

sailwx.info

Track history (hours):
 
Tides and Currents Weather Stations Pressure Air Temp Water Temp Dewpoint Dewpoint Depression Visibility Wind Speed Wind Dir Waves Ship Positions

Hiyodori

Last reported at 2015-May-21 15:26 UTC. Time now 2015-May-22 11:37 UTC.
Position N 34°55' E 139°18'.

Length 88 m; draft 3.6 m.

Type: Cargo ship. MMSI: 431000132.

Date/timePositionNaut miles runAvg speedWind from/ knotsBaromVisibWave heightAir tempDewpointWater temp
2015-May-21 15:26N 34°55' E 139°18'1011.4
2015-May-21 14:33N 35°00' E 139°28'1111.2
2015-May-21 13:33N 35°06' E 139°40'1110.7
2015-May-21 12:33N 35°16' E 139°46'9 9.4
2015-May-21 11:33N 35°24' E 139°41'0 0.0
2015-May-21 10:33N 35°24' E 139°41'3 3.0
2015-May-21 09:33N 35°22' E 139°44'0 0.0
2015-May-21 08:33N 35°22' E 139°44'0 0.1
2015-May-21 07:33N 35°22' E 139°44'0 0.0
2015-May-21 06:24N 35°22' E 139°44'0 0.0
2015-May-21 05:33N 35°22' E 139°44'0 0.0
2015-May-21 04:25N 35°22' E 139°44'0 0.1
2015-May-21 03:12N 35°22' E 139°44'0 0.0
2015-May-21 02:31N 35°22' E 139°44'0 0.0
2015-May-21 01:33N 35°22' E 139°44'0 0.0
2015-May-21 00:34N 35°22' E 139°44'0 0.0
2015-May-20 23:33N 35°22' E 139°44'0 0.0
2015-May-20 22:33N 35°22' E 139°44'0 0.0
2015-May-20 21:30N 35°22' E 139°44'6 6.6
2015-May-20 20:33N 35°16' E 139°46'9 9.2
2015-May-20 19:33N 35°07' E 139°43'9 8.8
2015-May-20 18:33N 35°01' E 139°36'9 0.3
2015-May-19 11:13N 34°58' E 139°26'912.5
2015-May-19 10:32N 35°03' E 139°35'1212.1
2015-May-19 09:33N 35°11' E 139°45'1110.9
2015-May-19 08:33N 35°21' E 139°42'3 2.8
2015-May-19 07:33N 35°24' E 139°41'0 0.0
2015-May-19 06:33N 35°24' E 139°41'0 0.0
2015-May-19 05:33N 35°24' E 139°41'0 0.0
2015-May-19 04:33N 35°24' E 139°41'0 0.0
2015-May-19 03:33N 35°24' E 139°41'0 0.0
2015-May-19 02:33N 35°24' E 139°41'0 0.0
2015-May-19 01:33N 35°24' E 139°41'1 1.3
2015-May-19 00:33N 35°23' E 139°40'0 0.1
2015-May-18 23:33N 35°23' E 139°40'0 0.1
2015-May-18 22:33N 35°23' E 139°40'0 0.0
2015-May-18 21:33N 35°23' E 139°40'0 0.0
2015-May-18 20:33N 35°23' E 139°40'0 0.0
2015-May-18 19:33N 35°23' E 139°40'8 7.8
2015-May-18 18:33N 35°17' E 139°45'1111.0
2015-May-18 17:33N 35°06' E 139°45'1111.4
2015-May-18 16:33N 34°58' E 139°34'234 7.1
2015-May-17 07:24N 33°53' E 135°02'1011.4
2015-May-17 06:33N 34°02' E 135°00'1312.7
2015-May-17 05:33N 34°15' E 134°59'1212.4
2015-May-17 04:34N 34°26' E 135°05'1212.1
2015-May-17 03:33N 34°35' E 135°15'6 6.0
2015-May-17 02:33N 34°41' E 135°12'0 0.0
2015-May-17 01:34N 34°41' E 135°12'0 0.0
2015-May-17 00:33N 34°41' E 135°12'0 0.0
2015-May-16 23:34N 34°41' E 135°12'0 0.0
2015-May-16 22:33N 34°41' E 135°12'0 0.0
2015-May-16 21:34N 34°41' E 135°12'0 0.0
2015-May-16 20:33N 34°41' E 135°12'0 0.0
2015-May-16 19:34N 34°41' E 135°12'0 0.0
2015-May-16 18:34N 34°41' E 135°12'0 0.0
2015-May-16 17:34N 34°41' E 135°12'0 0.0
2015-May-16 16:34N 34°41' E 135°12'0 0.0
2015-May-16 15:33N 34°41' E 135°12'0 0.0
2015-May-16 14:33N 34°41' E 135°12'0 0.0
2015-May-16 13:33N 34°41' E 135°12'0 0.0
2015-May-16 12:33N 34°41' E 135°12'0 0.0
2015-May-16 11:33N 34°41' E 135°12'0 0.0
2015-May-16 10:33N 34°41' E 135°12'0 0.0
2015-May-16 09:33N 34°41' E 135°12'0 0.0
2015-May-16 08:34N 34°41' E 135°12'0 0.0
2015-May-16 07:33N 34°41' E 135°12'0 0.0
2015-May-16 06:33N 34°41' E 135°12'0 0.0
2015-May-16 05:34N 34°41' E 135°12'0 0.0
2015-May-16 04:34N 34°41' E 135°12'0 0.0
2015-May-16 03:34N 34°41' E 135°12'0 0.0
2015-May-16 02:33N 34°41' E 135°12'0 0.1
2015-May-16 01:33N 34°41' E 135°12'4 3.9
2015-May-16 00:33N 34°41' E 135°17'0 0.0
2015-May-15 23:34N 34°41' E 135°17'0 0.0
2015-May-15 22:33N 34°41' E 135°17'0 0.0
2015-May-15 21:33N 34°41' E 135°17'0 0.0
2015-May-15 20:34N 34°41' E 135°17'8 8.2
2015-May-15 19:34N 34°34' E 135°14'1211.9
2015-May-15 18:33N 34°24' E 135°05'1111.1
2015-May-15 17:33N 34°14' E 134°60'1211.9
2015-May-15 16:33N 34°02' E 135°01'229 9.5
2015-May-14 16:33N 34°60' E 139°30'1211.5
2015-May-14 15:33N 35°07' E 139°41'1010.3
2015-May-14 14:34N 35°16' E 139°45'8 8.4
2015-May-14 13:33N 35°24' E 139°41'0 0.0
2015-May-14 12:34N 35°24' E 139°41'1 0.8
2015-May-14 11:34N 35°23' E 139°41'2 2.2
2015-May-14 10:34N 35°23' E 139°44'0 0.1
2015-May-14 09:34N 35°23' E 139°44'0 0.1
2015-May-14 08:34N 35°23' E 139°44'0 0.0
2015-May-14 07:33N 35°23' E 139°44'0 0.1
2015-May-14 06:34N 35°23' E 139°44'0 0.0
2015-May-14 05:34N 35°23' E 139°44'0 0.4
2015-May-14 04:33N 35°23' E 139°43'5 4.8
2015-May-14 03:34N 35°27' E 139°40'0 0.0
2015-May-14 02:33N 35°27' E 139°40'0 0.0
2015-May-14 01:33N 35°27' E 139°40'0 0.0
2015-May-14 00:34N 35°27' E 139°40'0 0.0
2015-May-13 23:33N 35°27' E 139°40'0 0.0
2015-May-13 22:34N 35°27' E 139°40'0 0.0
2015-May-13 21:34N 35°27' E 139°40'0 0.0
2015-May-13 20:34N 35°27' E 139°40'0 0.0
2015-May-13 19:34N 35°27' E 139°40'0 0.0
2015-May-13 18:33N 35°27' E 139°40'0 0.0
2015-May-13 17:33N 35°27' E 139°40'0 0.0
2015-May-13 16:33N 35°27' E 139°40'0 0.0
2015-May-13 15:33N 35°27' E 139°40'0 0.0
2015-May-13 14:34N 35°27' E 139°40'0 0.0
2015-May-13 13:33N 35°27' E 139°40'0 0.0
2015-May-13 12:33N 35°27' E 139°40'0 0.0
2015-May-13 11:33N 35°27' E 139°40'0 0.0
2015-May-13 10:34N 35°27' E 139°40'0 0.0
2015-May-13 09:34N 35°27' E 139°40'0 0.0
2015-May-13 08:34N 35°27' E 139°40'0 0.0
2015-May-13 07:33N 35°27' E 139°40'0 0.0
2015-May-13 06:34N 35°27' E 139°40'0 0.0
2015-May-13 05:34N 35°27' E 139°40'0 0.0
2015-May-13 04:33N 35°27' E 139°40'2 1.5
2015-May-13 03:34N 35°27' E 139°42'4 4.5
2015-May-13 02:33N 35°23' E 139°44'0 0.0
2015-May-13 01:33N 35°23' E 139°44'0 0.1
2015-May-13 00:34N 35°23' E 139°44'0 0.0
2015-May-12 23:33N 35°23' E 139°44'0 0.0
2015-May-12 22:30N 35°23' E 139°44'0 0.0
2015-May-12 21:32N 35°23' E 139°44'0 0.0
2015-May-12 20:31N 35°23' E 139°44'0 0.0
2015-May-12 19:30N 35°23' E 139°44'0 0.0
2015-May-12 18:31N 35°23' E 139°44'0 0.0
2015-May-12 17:28N 35°23' E 139°44'0 0.1
2015-May-12 16:32N 35°23' E 139°44'0 0.1
2015-May-12 15:33N 35°23' E 139°44'0 0.0
2015-May-12 14:33N 35°23' E 139°44'0 0.1
2015-May-12 13:33N 35°23' E 139°44'0 0.0
2015-May-12 12:32N 35°23' E 139°44'0 0.0
2015-May-12 11:33N 35°23' E 139°44'0 0.0
2015-May-12 10:32N 35°23' E 139°44'0 0.0
2015-May-12 09:29N 35°23' E 139°44'0 0.0
2015-May-12 08:27N 35°23' E 139°44'0 0.0
2015-May-12 07:24N 35°23' E 139°44'0 0.1
2015-May-12 06:33N 35°23' E 139°44'0 0.0
2015-May-12 05:33N 35°23' E 139°44'0 0.0
2015-May-12 04:33N 35°23' E 139°44'0 0.0
2015-May-12 03:33N 35°23' E 139°44'0 0.1
2015-May-12 02:33N 35°23' E 139°44'0 0.1
2015-May-12 01:33N 35°23' E 139°44'3 2.6
2015-May-12 00:33N 35°24' E 139°41'0 0.0
2015-May-11 23:34N 35°24' E 139°41'4 4.5
2015-May-11 22:33N 35°20' E 139°43'1111.3
2015-May-11 21:33N 35°09' E 139°46'1211.8
2015-May-11 20:33N 34°57' E 139°42'  
Track history (hours):
 
Tides and Currents Weather Stations Pressure Air Temp Water Temp Dewpoint Dewpoint Depression Visibility Wind Speed Wind Dir Waves Ship Positions

Hiyodori

Last reported at 2015-May-21 15:26 UTC. Time now 2015-May-22 11:37 UTC.
Position N 34°55' E 139°18'.

Length 88 m; draft 3.6 m.

Type: Cargo ship. MMSI: 431000132.

Date/timePositionNaut miles runAvg speedWind from/ knotsBaromVisibWave heightAir tempDewpointWater temp
2015-May-21 15:26N 34°55' E 139°18'1011.4
2015-May-21 14:33N 35°00' E 139°28'1111.2
2015-May-21 13:33N 35°06' E 139°40'1110.7
2015-May-21 12:33N 35°16' E 139°46'9 9.4
2015-May-21 11:33N 35°24' E 139°41'0 0.0
2015-May-21 10:33N 35°24' E 139°41'3 3.0
2015-May-21 09:33N 35°22' E 139°44'0 0.0
2015-May-21 08:33N 35°22' E 139°44'0 0.1
2015-May-21 07:33N 35°22' E 139°44'0 0.0
2015-May-21 06:24N 35°22' E 139°44'0 0.0
2015-May-21 05:33N 35°22' E 139°44'0 0.0
2015-May-21 04:25N 35°22' E 139°44'0 0.1
2015-May-21 03:12N 35°22' E 139°44'0 0.0
2015-May-21 02:31N 35°22' E 139°44'0 0.0
2015-May-21 01:33N 35°22' E 139°44'0 0.0
2015-May-21 00:34N 35°22' E 139°44'0 0.0
2015-May-20 23:33N 35°22' E 139°44'0 0.0
2015-May-20 22:33N 35°22' E 139°44'0 0.0
2015-May-20 21:30N 35°22' E 139°44'6 6.6
2015-May-20 20:33N 35°16' E 139°46'9 9.2
2015-May-20 19:33N 35°07' E 139°43'9 8.8
2015-May-20 18:33N 35°01' E 139°36'9 0.3
2015-May-19 11:13N 34°58' E 139°26'912.5
2015-May-19 10:32N 35°03' E 139°35'1212.1
2015-May-19 09:33N 35°11' E 139°45'1110.9
2015-May-19 08:33N 35°21' E 139°42'3 2.8
2015-May-19 07:33N 35°24' E 139°41'0 0.0
2015-May-19 06:33N 35°24' E 139°41'0 0.0
2015-May-19 05:33N 35°24' E 139°41'0 0.0
2015-May-19 04:33N 35°24' E 139°41'0 0.0
2015-May-19 03:33N 35°24' E 139°41'0 0.0
2015-May-19 02:33N 35°24' E 139°41'0 0.0
2015-May-19 01:33N 35°24' E 139°41'1 1.3
2015-May-19 00:33N 35°23' E 139°40'0 0.1
2015-May-18 23:33N 35°23' E 139°40'0 0.1
2015-May-18 22:33N 35°23' E 139°40'0 0.0
2015-May-18 21:33N 35°23' E 139°40'0 0.0
2015-May-18 20:33N 35°23' E 139°40'0 0.0
2015-May-18 19:33N 35°23' E 139°40'8 7.8
2015-May-18 18:33N 35°17' E 139°45'1111.0
2015-May-18 17:33N 35°06' E 139°45'1111.4
2015-May-18 16:33N 34°58' E 139°34'234 7.1
2015-May-17 07:24N 33°53' E 135°02'1011.4
2015-May-17 06:33N 34°02' E 135°00'1312.7
2015-May-17 05:33N 34°15' E 134°59'1212.4
2015-May-17 04:34N 34°26' E 135°05'1212.1
2015-May-17 03:33N 34°35' E 135°15'6 6.0
2015-May-17 02:33N 34°41' E 135°12'0 0.0
2015-May-17 01:34N 34°41' E 135°12'0 0.0
2015-May-17 00:33N 34°41' E 135°12'0 0.0
2015-May-16 23:34N 34°41' E 135°12'0 0.0
2015-May-16 22:33N 34°41' E 135°12'0 0.0
2015-May-16 21:34N 34°41' E 135°12'0 0.0
2015-May-16 20:33N 34°41' E 135°12'0 0.0
2015-May-16 19:34N 34°41' E 135°12'0 0.0
2015-May-16 18:34N 34°41' E 135°12'0 0.0
2015-May-16 17:34N 34°41' E 135°12'0 0.0
2015-May-16 16:34N 34°41' E 135°12'0 0.0
2015-May-16 15:33N 34°41' E 135°12'0 0.0
2015-May-16 14:33N 34°41' E 135°12'0 0.0
2015-May-16 13:33N 34°41' E 135°12'0 0.0
2015-May-16 12:33N 34°41' E 135°12'0 0.0
2015-May-16 11:33N 34°41' E 135°12'0 0.0
2015-May-16 10:33N 34°41' E 135°12'0 0.0
2015-May-16 09:33N 34°41' E 135°12'0 0.0
2015-May-16 08:34N 34°41' E 135°12'0 0.0
2015-May-16 07:33N 34°41' E 135°12'0 0.0
2015-May-16 06:33N 34°41' E 135°12'0 0.0
2015-May-16 05:34N 34°41' E 135°12'0 0.0
2015-May-16 04:34N 34°41' E 135°12'0 0.0
2015-May-16 03:34N 34°41' E 135°12'0 0.0
2015-May-16 02:33N 34°41' E 135°12'0 0.1
2015-May-16 01:33N 34°41' E 135°12'4 3.9
2015-May-16 00:33N 34°41' E 135°17'0 0.0
2015-May-15 23:34N 34°41' E 135°17'0 0.0
2015-May-15 22:33N 34°41' E 135°17'0 0.0
2015-May-15 21:33N 34°41' E 135°17'0 0.0
2015-May-15 20:34N 34°41' E 135°17'8 8.2
2015-May-15 19:34N 34°34' E 135°14'1211.9
2015-May-15 18:33N 34°24' E 135°05'1111.1
2015-May-15 17:33N 34°14' E 134°60'1211.9
2015-May-15 16:33N 34°02' E 135°01'229 9.5
2015-May-14 16:33N 34°60' E 139°30'1211.5
2015-May-14 15:33N 35°07' E 139°41'1010.3
2015-May-14 14:34N 35°16' E 139°45'8 8.4
2015-May-14 13:33N 35°24' E 139°41'0 0.0
2015-May-14 12:34N 35°24' E 139°41'1 0.8
2015-May-14 11:34N 35°23' E 139°41'2 2.2
2015-May-14 10:34N 35°23' E 139°44'0 0.1
2015-May-14 09:34N 35°23' E 139°44'0 0.1
2015-May-14 08:34N 35°23' E 139°44'0 0.0
2015-May-14 07:33N 35°23' E 139°44'0 0.1
2015-May-14 06:34N 35°23' E 139°44'0 0.0
2015-May-14 05:34N 35°23' E 139°44'0 0.4
2015-May-14 04:33N 35°23' E 139°43'5 4.8
2015-May-14 03:34N 35°27' E 139°40'0 0.0
2015-May-14 02:33N 35°27' E 139°40'0 0.0
2015-May-14 01:33N 35°27' E 139°40'0 0.0
2015-May-14 00:34N 35°27' E 139°40'0 0.0
2015-May-13 23:33N 35°27' E 139°40'0 0.0
2015-May-13 22:34N 35°27' E 139°40'0 0.0
2015-May-13 21:34N 35°27' E 139°40'0 0.0
2015-May-13 20:34N 35°27' E 139°40'0 0.0
2015-May-13 19:34N 35°27' E 139°40'0 0.0
2015-May-13 18:33N 35°27' E 139°40'0 0.0
2015-May-13 17:33N 35°27' E 139°40'0 0.0
2015-May-13 16:33N 35°27' E 139°40'0 0.0
2015-May-13 15:33N 35°27' E 139°40'0 0.0
2015-May-13 14:34N 35°27' E 139°40'0 0.0
2015-May-13 13:33N 35°27' E 139°40'0 0.0
2015-May-13 12:33N 35°27' E 139°40'0 0.0
2015-May-13 11:33N 35°27' E 139°40'0 0.0
2015-May-13 10:34N 35°27' E 139°40'0 0.0
2015-May-13 09:34N 35°27' E 139°40'0 0.0
2015-May-13 08:34N 35°27' E 139°40'0 0.0
2015-May-13 07:33N 35°27' E 139°40'0 0.0
2015-May-13 06:34N 35°27' E 139°40'0 0.0
2015-May-13 05:34N 35°27' E 139°40'0 0.0
2015-May-13 04:33N 35°27' E 139°40'2 1.5
2015-May-13 03:34N 35°27' E 139°42'4 4.5
2015-May-13 02:33N 35°23' E 139°44'0 0.0
2015-May-13 01:33N 35°23' E 139°44'0 0.1
2015-May-13 00:34N 35°23' E 139°44'0 0.0
2015-May-12 23:33N 35°23' E 139°44'0 0.0
2015-May-12 22:30N 35°23' E 139°44'0 0.0
2015-May-12 21:32N 35°23' E 139°44'0 0.0
2015-May-12 20:31N 35°23' E 139°44'0 0.0
2015-May-12 19:30N 35°23' E 139°44'0 0.0
2015-May-12 18:31N 35°23' E 139°44'0 0.0
2015-May-12 17:28N 35°23' E 139°44'0 0.1
2015-May-12 16:32N 35°23' E 139°44'0 0.1
2015-May-12 15:33N 35°23' E 139°44'0 0.0
2015-May-12 14:33N 35°23' E 139°44'0 0.1
2015-May-12 13:33N 35°23' E 139°44'0 0.0
2015-May-12 12:32N 35°23' E 139°44'0 0.0
2015-May-12 11:33N 35°23' E 139°44'0 0.0
2015-May-12 10:32N 35°23' E 139°44'0 0.0
2015-May-12 09:29N 35°23' E 139°44'0 0.0
2015-May-12 08:27N 35°23' E 139°44'0 0.0
2015-May-12 07:24N 35°23' E 139°44'0 0.1
2015-May-12 06:33N 35°23' E 139°44'0 0.0
2015-May-12 05:33N 35°23' E 139°44'0 0.0
2015-May-12 04:33N 35°23' E 139°44'0 0.0
2015-May-12 03:33N 35°23' E 139°44'0 0.1
2015-May-12 02:33N 35°23' E 139°44'0 0.1
2015-May-12 01:33N 35°23' E 139°44'3 2.6
2015-May-12 00:33N 35°24' E 139°41'0 0.0
2015-May-11 23:34N 35°24' E 139°41'4 4.5
2015-May-11 22:33N 35°20' E 139°43'1111.3
2015-May-11 21:33N 35°09' E 139°46'1211.8
2015-May-11 20:33N 34°57' E 139°42'  

Dump ship's entire track history